sensor_id;sensor_type;location;lat;lon;timestamp;temperature;humidity
2639;DHT22;1329;51.384;7.122;2024-02-16T00:02:09;14.80;99.90
2639;DHT22;1329;51.384;7.122;2024-02-16T00:04:36;14.80;99.90
2639;DHT22;1329;51.384;7.122;2024-02-16T00:07:03;14.80;99.90
2639;DHT22;1329;51.384;7.122;2024-02-16T00:09:31;14.80;99.90
2639;DHT22;1329;51.384;7.122;2024-02-16T00:11:58;14.80;99.90
2639;DHT22;1329;51.384;7.122;2024-02-16T00:14:25;14.80;99.90
2639;DHT22;1329;51.384;7.122;2024-02-16T00:16:53;14.80;99.90
2639;DHT22;1329;51.384;7.122;2024-02-16T00:19:22;14.80;99.90
2639;DHT22;1329;51.384;7.122;2024-02-16T00:21:50;14.80;99.90
2639;DHT22;1329;51.384;7.122;2024-02-16T00:24:17;14.90;99.90
2639;DHT22;1329;51.384;7.122;2024-02-16T00:26:44;14.90;99.90
2639;DHT22;1329;51.384;7.122;2024-02-16T00:29:12;14.90;99.90
2639;DHT22;1329;51.384;7.122;2024-02-16T00:31:40;14.90;99.90
2639;DHT22;1329;51.384;7.122;2024-02-16T00:34:07;14.90;99.90
2639;DHT22;1329;51.384;7.122;2024-02-16T00:36:37;14.90;99.90
2639;DHT22;1329;51.384;7.122;2024-02-16T00:39:04;14.90;99.90
2639;DHT22;1329;51.384;7.122;2024-02-16T00:41:31;14.90;99.90
2639;DHT22;1329;51.384;7.122;2024-02-16T00:43:59;14.90;99.90
2639;DHT22;1329;51.384;7.122;2024-02-16T00:46:26;14.90;99.90
2639;DHT22;1329;51.384;7.122;2024-02-16T00:48:53;14.90;99.90
2639;DHT22;1329;51.384;7.122;2024-02-16T00:51:21;14.90;99.90
2639;DHT22;1329;51.384;7.122;2024-02-16T00:53:52;15.00;99.90
2639;DHT22;1329;51.384;7.122;2024-02-16T00:56:20;15.00;99.90
2639;DHT22;1329;51.384;7.122;2024-02-16T00:58:50;15.00;99.90
2639;DHT22;1329;51.384;7.122;2024-02-16T01:01:17;15.00;99.90
2639;DHT22;1329;51.384;7.122;2024-02-16T01:03:46;15.00;99.90
2639;DHT22;1329;51.384;7.122;2024-02-16T01:06:17;15.00;99.90
2639;DHT22;1329;51.384;7.122;2024-02-16T01:08:44;15.00;99.90
2639;DHT22;1329;51.384;7.122;2024-02-16T01:11:13;15.10;99.90
2639;DHT22;1329;51.384;7.122;2024-02-16T01:13:40;15.00;99.90
2639;DHT22;1329;51.384;7.122;2024-02-16T01:16:08;15.00;99.90
2639;DHT22;1329;51.384;7.122;2024-02-16T01:18:46;15.00;99.90
2639;DHT22;1329;51.384;7.122;2024-02-16T01:21:13;15.00;99.90
2639;DHT22;1329;51.384;7.122;2024-02-16T01:23:41;15.00;99.90
2639;DHT22;1329;51.384;7.122;2024-02-16T01:26:08;15.00;99.90
2639;DHT22;1329;51.384;7.122;2024-02-16T01:28:36;15.00;99.90
2639;DHT22;1329;51.384;7.122;2024-02-16T01:31:04;15.00;99.90
2639;DHT22;1329;51.384;7.122;2024-02-16T01:33:31;15.00;99.90
2639;DHT22;1329;51.384;7.122;2024-02-16T01:36:00;15.00;99.90
2639;DHT22;1329;51.384;7.122;2024-02-16T01:38:27;15.00;99.90
2639;DHT22;1329;51.384;7.122;2024-02-16T01:40:54;15.00;99.90
2639;DHT22;1329;51.384;7.122;2024-02-16T01:43:21;15.00;99.90
2639;DHT22;1329;51.384;7.122;2024-02-16T01:45:49;15.00;99.90
2639;DHT22;1329;51.384;7.122;2024-02-16T01:48:17;15.00;99.90
2639;DHT22;1329;51.384;7.122;2024-02-16T01:50:45;15.00;99.90
2639;DHT22;1329;51.384;7.122;2024-02-16T01:53:14;15.10;99.90
2639;DHT22;1329;51.384;7.122;2024-02-16T01:55:44;15.00;99.90
2639;DHT22;1329;51.384;7.122;2024-02-16T01:58:11;15.00;99.90
2639;DHT22;1329;51.384;7.122;2024-02-16T02:00:39;15.10;99.90
2639;DHT22;1329;51.384;7.122;2024-02-16T02:03:08;15.10;99.90
2639;DHT22;1329;51.384;7.122;2024-02-16T02:05:43;15.10;99.90
2639;DHT22;1329;51.384;7.122;2024-02-16T02:08:12;15.10;99.90
2639;DHT22;1329;51.384;7.122;2024-02-16T02:10:42;15.10;99.90
2639;DHT22;1329;51.384;7.122;2024-02-16T02:13:10;15.10;99.90
2639;DHT22;1329;51.384;7.122;2024-02-16T02:15:37;15.10;99.90
2639;DHT22;1329;51.384;7.122;2024-02-16T02:18:04;15.10;99.90
2639;DHT22;1329;51.384;7.122;2024-02-16T02:20:33;15.10;99.90
2639;DHT22;1329;51.384;7.122;2024-02-16T02:23:01;15.10;99.90
2639;DHT22;1329;51.384;7.122;2024-02-16T02:25:29;15.10;99.90
2639;DHT22;1329;51.384;7.122;2024-02-16T02:27:56;15.10;99.90
2639;DHT22;1329;51.384;7.122;2024-02-16T02:30:24;15.10;99.90
2639;DHT22;1329;51.384;7.122;2024-02-16T02:32:51;15.10;99.90
2639;DHT22;1329;51.384;7.122;2024-02-16T02:35:18;15.10;99.90
2639;DHT22;1329;51.384;7.122;2024-02-16T02:37:45;15.10;99.90
2639;DHT22;1329;51.384;7.122;2024-02-16T02:40:14;15.10;99.90
2639;DHT22;1329;51.384;7.122;2024-02-16T02:42:42;15.10;99.90
2639;DHT22;1329;51.384;7.122;2024-02-16T02:45:09;15.10;99.90
2639;DHT22;1329;51.384;7.122;2024-02-16T02:47:37;15.10;99.90
2639;DHT22;1329;51.384;7.122;2024-02-16T02:50:05;15.10;99.90
2639;DHT22;1329;51.384;7.122;2024-02-16T02:52:33;15.20;99.90
2639;DHT22;1329;51.384;7.122;2024-02-16T02:55:00;15.10;99.90
2639;DHT22;1329;51.384;7.122;2024-02-16T02:57:29;15.10;99.90
2639;DHT22;1329;51.384;7.122;2024-02-16T03:00:03;15.10;99.90
2639;DHT22;1329;51.384;7.122;2024-02-16T03:02:36;15.10;98.80
2639;DHT22;1329;51.384;7.122;2024-02-16T03:05:06;15.20;99.90
2639;DHT22;1329;51.384;7.122;2024-02-16T03:07:34;15.20;99.90
2639;DHT22;1329;51.384;7.122;2024-02-16T03:10:03;15.20;99.90
2639;DHT22;1329;51.384;7.122;2024-02-16T03:12:33;15.10;99.90
2639;DHT22;1329;51.384;7.122;2024-02-16T03:15:02;15.10;99.90
2639;DHT22;1329;51.384;7.122;2024-02-16T03:17:32;15.10;99.90
2639;DHT22;1329;51.384;7.122;2024-02-16T03:20:00;15.10;99.90
2639;DHT22;1329;51.384;7.122;2024-02-16T03:22:28;15.10;99.90
2639;DHT22;1329;51.384;7.122;2024-02-16T03:24:58;15.10;99.90
2639;DHT22;1329;51.384;7.122;2024-02-16T03:27:29;15.10;99.90
2639;DHT22;1329;51.384;7.122;2024-02-16T03:29:58;15.00;99.90
2639;DHT22;1329;51.384;7.122;2024-02-16T03:32:26;15.00;99.50
2639;DHT22;1329;51.384;7.122;2024-02-16T03:34:54;15.10;99.60
2639;DHT22;1329;51.384;7.122;2024-02-16T03:37:24;15.10;99.50
2639;DHT22;1329;51.384;7.122;2024-02-16T03:39:51;15.00;99.90
2639;DHT22;1329;51.384;7.122;2024-02-16T03:42:19;15.00;99.30
2639;DHT22;1329;51.384;7.122;2024-02-16T03:44:46;15.00;98.60
2639;DHT22;1329;51.384;7.122;2024-02-16T03:47:17;15.00;98.60
2639;DHT22;1329;51.384;7.122;2024-02-16T03:49:45;15.00;97.60
2639;DHT22;1329;51.384;7.122;2024-02-16T03:52:12;15.00;96.90
2639;DHT22;1329;51.384;7.122;2024-02-16T03:54:40;14.90;96.90
2639;DHT22;1329;51.384;7.122;2024-02-16T03:57:08;14.90;97.20
2639;DHT22;1329;51.384;7.122;2024-02-16T03:59:37;14.90;97.20
2639;DHT22;1329;51.384;7.122;2024-02-16T04:02:05;14.90;97.30
2639;DHT22;1329;51.384;7.122;2024-02-16T04:04:34;14.90;97.50
2639;DHT22;1329;51.384;7.122;2024-02-16T04:07:03;14.90;97.10
2639;DHT22;1329;51.384;7.122;2024-02-16T04:09:32;14.90;97.10
2639;DHT22;1329;51.384;7.122;2024-02-16T04:12:00;14.90;97.60
2639;DHT22;1329;51.384;7.122;2024-02-16T04:14:29;14.90;97.80
2639;DHT22;1329;51.384;7.122;2024-02-16T04:16:58;14.90;97.70
2639;DHT22;1329;51.384;7.122;2024-02-16T04:19:26;14.90;98.50
2639;DHT22;1329;51.384;7.122;2024-02-16T04:21:55;14.90;96.50
2639;DHT22;1329;51.384;7.122;2024-02-16T04:24:23;14.90;97.60
2639;DHT22;1329;51.384;7.122;2024-02-16T04:26:50;14.90;98.20
2639;DHT22;1329;51.384;7.122;2024-02-16T04:29:18;15.00;98.90
2639;DHT22;1329;51.384;7.122;2024-02-16T04:31:45;15.00;99.70
2639;DHT22;1329;51.384;7.122;2024-02-16T04:34:14;15.00;99.30
2639;DHT22;1329;51.384;7.122;2024-02-16T04:36:42;15.00;99.00
2639;DHT22;1329;51.384;7.122;2024-02-16T04:39:12;15.00;99.50
2639;DHT22;1329;51.384;7.122;2024-02-16T04:41:40;15.00;98.50
2639;DHT22;1329;51.384;7.122;2024-02-16T04:44:08;15.00;98.70
2639;DHT22;1329;51.384;7.122;2024-02-16T04:46:36;15.00;98.20
2639;DHT22;1329;51.384;7.122;2024-02-16T04:49:03;15.00;98.40
2639;DHT22;1329;51.384;7.122;2024-02-16T04:51:31;15.00;98.40
2639;DHT22;1329;51.384;7.122;2024-02-16T04:53:59;15.00;98.40
2639;DHT22;1329;51.384;7.122;2024-02-16T04:56:30;15.00;98.10
2639;DHT22;1329;51.384;7.122;2024-02-16T04:58:57;15.00;96.90
2639;DHT22;1329;51.384;7.122;2024-02-16T05:01:25;15.00;96.90
2639;DHT22;1329;51.384;7.122;2024-02-16T05:03:54;15.00;96.60
2639;DHT22;1329;51.384;7.122;2024-02-16T05:06:22;15.00;96.70
2639;DHT22;1329;51.384;7.122;2024-02-16T05:08:50;15.00;96.60
2639;DHT22;1329;51.384;7.122;2024-02-16T05:11:17;14.90;96.20
2639;DHT22;1329;51.384;7.122;2024-02-16T05:13:46;14.90;95.90
2639;DHT22;1329;51.384;7.122;2024-02-16T05:16:13;14.90;95.40
2639;DHT22;1329;51.384;7.122;2024-02-16T05:18:40;14.90;95.80
2639;DHT22;1329;51.384;7.122;2024-02-16T05:21:10;14.80;94.90
2639;DHT22;1329;51.384;7.122;2024-02-16T05:23:37;14.80;95.00
2639;DHT22;1329;51.384;7.122;2024-02-16T05:26:04;14.80;95.60
2639;DHT22;1329;51.384;7.122;2024-02-16T05:28:31;14.80;94.90
2639;DHT22;1329;51.384;7.122;2024-02-16T05:31:06;14.90;95.50
2639;DHT22;1329;51.384;7.122;2024-02-16T05:33:41;14.80;93.60
2639;DHT22;1329;51.384;7.122;2024-02-16T05:36:08;14.70;95.90
2639;DHT22;1329;51.384;7.122;2024-02-16T05:38:35;14.80;97.00
2639;DHT22;1329;51.384;7.122;2024-02-16T05:41:08;14.70;95.90
2639;DHT22;1329;51.384;7.122;2024-02-16T05:43:36;14.70;96.10
2639;DHT22;1329;51.384;7.122;2024-02-16T05:46:06;14.70;96.20
2639;DHT22;1329;51.384;7.122;2024-02-16T05:48:33;14.70;95.30
2639;DHT22;1329;51.384;7.122;2024-02-16T05:51:03;14.70;95.50
2639;DHT22;1329;51.384;7.122;2024-02-16T05:53:31;14.70;95.60
2639;DHT22;1329;51.384;7.122;2024-02-16T05:55:59;14.70;95.80
2639;DHT22;1329;51.384;7.122;2024-02-16T05:58:27;14.70;94.90
2639;DHT22;1329;51.384;7.122;2024-02-16T06:00:54;14.70;94.50
2639;DHT22;1329;51.384;7.122;2024-02-16T06:03:24;14.70;94.60
2639;DHT22;1329;51.384;7.122;2024-02-16T06:05:52;14.70;94.10
2639;DHT22;1329;51.384;7.122;2024-02-16T06:08:19;14.60;95.00
2639;DHT22;1329;51.384;7.122;2024-02-16T06:10:46;14.60;95.30
2639;DHT22;1329;51.384;7.122;2024-02-16T06:13:18;14.60;95.40
2639;DHT22;1329;51.384;7.122;2024-02-16T06:15:46;14.60;95.60
2639;DHT22;1329;51.384;7.122;2024-02-16T06:18:13;14.60;95.50
2639;DHT22;1329;51.384;7.122;2024-02-16T06:20:43;14.60;95.40
2639;DHT22;1329;51.384;7.122;2024-02-16T06:23:10;14.50;94.50
2639;DHT22;1329;51.384;7.122;2024-02-16T06:25:37;14.50;95.10
2639;DHT22;1329;51.384;7.122;2024-02-16T06:28:05;14.50;95.30
2639;DHT22;1329;51.384;7.122;2024-02-16T06:30:32;14.50;95.60
2639;DHT22;1329;51.384;7.122;2024-02-16T06:32:59;14.50;95.30
2639;DHT22;1329;51.384;7.122;2024-02-16T06:35:26;14.50;95.10
2639;DHT22;1329;51.384;7.122;2024-02-16T06:37:54;14.40;94.70
2639;DHT22;1329;51.384;7.122;2024-02-16T06:40:22;14.40;95.40
2639;DHT22;1329;51.384;7.122;2024-02-16T06:42:51;14.40;96.80
2639;DHT22;1329;51.384;7.122;2024-02-16T06:45:18;14.40;96.60
2639;DHT22;1329;51.384;7.122;2024-02-16T06:47:45;14.40;97.70
2639;DHT22;1329;51.384;7.122;2024-02-16T06:50:12;14.40;98.90
2639;DHT22;1329;51.384;7.122;2024-02-16T06:52:40;14.50;99.20
2639;DHT22;1329;51.384;7.122;2024-02-16T06:55:09;14.50;99.80
2639;DHT22;1329;51.384;7.122;2024-02-16T06:57:36;14.50;99.10
2639;DHT22;1329;51.384;7.122;2024-02-16T07:00:04;14.50;99.10
2639;DHT22;1329;51.384;7.122;2024-02-16T07:02:34;14.50;99.00
2639;DHT22;1329;51.384;7.122;2024-02-16T07:05:01;14.50;98.80
2639;DHT22;1329;51.384;7.122;2024-02-16T07:07:28;14.50;98.70
2639;DHT22;1329;51.384;7.122;2024-02-16T07:09:55;14.50;98.70
2639;DHT22;1329;51.384;7.122;2024-02-16T07:12:24;14.50;98.50
2639;DHT22;1329;51.384;7.122;2024-02-16T07:14:51;14.50;99.10
2639;DHT22;1329;51.384;7.122;2024-02-16T07:17:19;14.50;99.90
2639;DHT22;1329;51.384;7.122;2024-02-16T07:19:46;14.50;99.60
2639;DHT22;1329;51.384;7.122;2024-02-16T07:22:13;14.60;99.70
2639;DHT22;1329;51.384;7.122;2024-02-16T07:24:40;14.60;99.90
2639;DHT22;1329;51.384;7.122;2024-02-16T07:27:07;14.60;99.90
2639;DHT22;1329;51.384;7.122;2024-02-16T07:29:37;14.60;99.90
2639;DHT22;1329;51.384;7.122;2024-02-16T07:32:05;14.70;99.90
2639;DHT22;1329;51.384;7.122;2024-02-16T07:34:32;14.70;99.90
2639;DHT22;1329;51.384;7.122;2024-02-16T07:36:59;14.70;99.90
2639;DHT22;1329;51.384;7.122;2024-02-16T07:39:26;14.70;99.90
2639;DHT22;1329;51.384;7.122;2024-02-16T07:41:54;14.80;99.10
2639;DHT22;1329;51.384;7.122;2024-02-16T07:44:21;14.80;99.70
2639;DHT22;1329;51.384;7.122;2024-02-16T07:46:49;14.80;99.80
2639;DHT22;1329;51.384;7.122;2024-02-16T07:49:18;14.80;99.00
2639;DHT22;1329;51.384;7.122;2024-02-16T07:51:45;14.90;98.80
2639;DHT22;1329;51.384;7.122;2024-02-16T07:54:12;14.90;99.30
2639;DHT22;1329;51.384;7.122;2024-02-16T07:56:39;14.90;99.80
2639;DHT22;1329;51.384;7.122;2024-02-16T07:59:06;14.90;99.90
2639;DHT22;1329;51.384;7.122;2024-02-16T08:01:33;15.00;99.90
2639;DHT22;1329;51.384;7.122;2024-02-16T08:04:02;15.00;99.80
2639;DHT22;1329;51.384;7.122;2024-02-16T08:06:29;15.10;99.80
2639;DHT22;1329;51.384;7.122;2024-02-16T08:08:56;15.10;99.90
2639;DHT22;1329;51.384;7.122;2024-02-16T08:11:23;15.10;99.90
2639;DHT22;1329;51.384;7.122;2024-02-16T08:13:51;15.20;99.90
2639;DHT22;1329;51.384;7.122;2024-02-16T08:16:18;15.20;99.90
2639;DHT22;1329;51.384;7.122;2024-02-16T08:18:45;15.20;99.90
2639;DHT22;1329;51.384;7.122;2024-02-16T08:21:13;15.20;99.90
2639;DHT22;1329;51.384;7.122;2024-02-16T08:23:41;15.30;99.90
2639;DHT22;1329;51.384;7.122;2024-02-16T08:26:07;15.30;99.90
2639;DHT22;1329;51.384;7.122;2024-02-16T08:28:35;15.30;99.90
2639;DHT22;1329;51.384;7.122;2024-02-16T08:31:02;15.30;99.90
2639;DHT22;1329;51.384;7.122;2024-02-16T08:33:29;15.30;99.90
2639;DHT22;1329;51.384;7.122;2024-02-16T08:35:57;15.40;99.90
2639;DHT22;1329;51.384;7.122;2024-02-16T08:38:25;15.40;99.90
2639;DHT22;1329;51.384;7.122;2024-02-16T08:40:52;15.40;99.90
2639;DHT22;1329;51.384;7.122;2024-02-16T08:43:19;15.40;99.90
2639;DHT22;1329;51.384;7.122;2024-02-16T08:45:47;15.40;99.90
2639;DHT22;1329;51.384;7.122;2024-02-16T08:48:14;15.40;99.90
2639;DHT22;1329;51.384;7.122;2024-02-16T08:50:41;15.40;99.90
2639;DHT22;1329;51.384;7.122;2024-02-16T08:53:10;15.40;99.90
2639;DHT22;1329;51.384;7.122;2024-02-16T08:55:38;15.40;99.90
2639;DHT22;1329;51.384;7.122;2024-02-16T08:58:07;15.40;99.90
2639;DHT22;1329;51.384;7.122;2024-02-16T09:00:34;15.40;99.90
2639;DHT22;1329;51.384;7.122;2024-02-16T09:03:02;15.40;99.90
2639;DHT22;1329;51.384;7.122;2024-02-16T09:05:31;15.50;99.90
2639;DHT22;1329;51.384;7.122;2024-02-16T09:07:59;15.50;99.90
2639;DHT22;1329;51.384;7.122;2024-02-16T09:10:27;15.60;99.90
2639;DHT22;1329;51.384;7.122;2024-02-16T09:12:55;15.60;99.90
2639;DHT22;1329;51.384;7.122;2024-02-16T09:15:23;15.60;99.90
2639;DHT22;1329;51.384;7.122;2024-02-16T09:17:50;15.70;99.90
2639;DHT22;1329;51.384;7.122;2024-02-16T09:20:17;15.70;99.90
2639;DHT22;1329;51.384;7.122;2024-02-16T09:22:48;15.80;99.90
2639;DHT22;1329;51.384;7.122;2024-02-16T09:25:16;15.80;99.90
2639;DHT22;1329;51.384;7.122;2024-02-16T09:27:45;15.80;99.90
2639;DHT22;1329;51.384;7.122;2024-02-16T09:30:14;15.90;99.90
2639;DHT22;1329;51.384;7.122;2024-02-16T09:32:42;15.90;99.90
2639;DHT22;1329;51.384;7.122;2024-02-16T09:35:09;15.90;99.90
2639;DHT22;1329;51.384;7.122;2024-02-16T09:37:38;16.00;99.90
2639;DHT22;1329;51.384;7.122;2024-02-16T09:40:07;15.90;99.90
2639;DHT22;1329;51.384;7.122;2024-02-16T09:42:37;16.10;99.90
2639;DHT22;1329;51.384;7.122;2024-02-16T09:45:07;16.10;99.90
2639;DHT22;1329;51.384;7.122;2024-02-16T09:47:39;16.10;99.90
2639;DHT22;1329;51.384;7.122;2024-02-16T09:50:06;16.10;99.90
2639;DHT22;1329;51.384;7.122;2024-02-16T09:52:35;16.20;99.90
2639;DHT22;1329;51.384;7.122;2024-02-16T09:55:03;16.20;99.90
2639;DHT22;1329;51.384;7.122;2024-02-16T09:57:33;16.20;99.90
2639;DHT22;1329;51.384;7.122;2024-02-16T10:00:02;16.30;99.90
2639;DHT22;1329;51.384;7.122;2024-02-16T10:02:41;16.40;99.90
2639;DHT22;1329;51.384;7.122;2024-02-16T10:05:13;16.40;99.90
2639;DHT22;1329;51.384;7.122;2024-02-16T10:07:49;16.40;99.90
2639;DHT22;1329;51.384;7.122;2024-02-16T10:10:20;16.50;99.90
2639;DHT22;1329;51.384;7.122;2024-02-16T10:12:49;16.60;99.90
2639;DHT22;1329;51.384;7.122;2024-02-16T10:15:20;16.60;99.90
2639;DHT22;1329;51.384;7.122;2024-02-16T10:17:58;16.60;99.90
2639;DHT22;1329;51.384;7.122;2024-02-16T10:20:26;16.70;99.90
2639;DHT22;1329;51.384;7.122;2024-02-16T10:23:04;16.70;99.90
2639;DHT22;1329;51.384;7.122;2024-02-16T10:25:32;16.70;99.90
2639;DHT22;1329;51.384;7.122;2024-02-16T10:28:04;16.70;99.90
2639;DHT22;1329;51.384;7.122;2024-02-16T10:30:35;16.70;99.90
2639;DHT22;1329;51.384;7.122;2024-02-16T10:33:06;16.70;99.90
2639;DHT22;1329;51.384;7.122;2024-02-16T10:35:34;16.70;99.90
2639;DHT22;1329;51.384;7.122;2024-02-16T10:38:02;16.70;99.90
2639;DHT22;1329;51.384;7.122;2024-02-16T10:40:32;16.70;99.90
2639;DHT22;1329;51.384;7.122;2024-02-16T10:43:03;16.70;99.90
2639;DHT22;1329;51.384;7.122;2024-02-16T10:45:36;16.80;99.90
2639;DHT22;1329;51.384;7.122;2024-02-16T10:48:06;16.80;99.90
2639;DHT22;1329;51.384;7.122;2024-02-16T10:50:35;16.90;99.90
2639;DHT22;1329;51.384;7.122;2024-02-16T10:53:08;16.90;99.90
2639;DHT22;1329;51.384;7.122;2024-02-16T10:55:37;17.00;99.90
2639;DHT22;1329;51.384;7.122;2024-02-16T10:58:10;17.00;99.90
2639;DHT22;1329;51.384;7.122;2024-02-16T11:00:48;17.10;99.90
2639;DHT22;1329;51.384;7.122;2024-02-16T11:03:24;17.20;99.90
2639;DHT22;1329;51.384;7.122;2024-02-16T11:05:52;17.20;99.90
2639;DHT22;1329;51.384;7.122;2024-02-16T11:08:27;17.20;99.90
2639;DHT22;1329;51.384;7.122;2024-02-16T11:10:58;17.20;99.90
2639;DHT22;1329;51.384;7.122;2024-02-16T11:13:32;17.20;99.90
2639;DHT22;1329;51.384;7.122;2024-02-16T11:16:00;17.20;99.90
2639;DHT22;1329;51.384;7.122;2024-02-16T11:18:36;17.20;99.90
2639;DHT22;1329;51.384;7.122;2024-02-16T11:21:15;17.20;99.90
2639;DHT22;1329;51.384;7.122;2024-02-16T11:23:44;17.20;99.90
2639;DHT22;1329;51.384;7.122;2024-02-16T11:26:17;17.20;99.90
2639;DHT22;1329;51.384;7.122;2024-02-16T11:28:45;17.10;99.90
2639;DHT22;1329;51.384;7.122;2024-02-16T11:31:12;17.10;99.90
2639;DHT22;1329;51.384;7.122;2024-02-16T11:33:46;17.10;99.90
2639;DHT22;1329;51.384;7.122;2024-02-16T11:36:16;17.00;98.60
2639;DHT22;1329;51.384;7.122;2024-02-16T11:38:44;17.00;99.90
2639;DHT22;1329;51.384;7.122;2024-02-16T11:41:11;17.00;99.10
2639;DHT22;1329;51.384;7.122;2024-02-16T11:43:42;17.00;99.40
2639;DHT22;1329;51.384;7.122;2024-02-16T11:46:13;16.90;99.10
2639;DHT22;1329;51.384;7.122;2024-02-16T11:48:41;16.90;97.90
2639;DHT22;1329;51.384;7.122;2024-02-16T11:51:10;16.90;99.40
2639;DHT22;1329;51.384;7.122;2024-02-16T11:53:37;16.90;99.90
2639;DHT22;1329;51.384;7.122;2024-02-16T11:56:05;16.80;99.90
2639;DHT22;1329;51.384;7.122;2024-02-16T11:58:32;16.80;99.90
2639;DHT22;1329;51.384;7.122;2024-02-16T12:01:00;16.80;99.90
2639;DHT22;1329;51.384;7.122;2024-02-16T12:03:28;16.80;99.90
2639;DHT22;1329;51.384;7.122;2024-02-16T12:05:58;16.80;99.90
2639;DHT22;1329;51.384;7.122;2024-02-16T12:08:32;16.70;99.90
2639;DHT22;1329;51.384;7.122;2024-02-16T12:11:00;16.80;99.80
2639;DHT22;1329;51.384;7.122;2024-02-16T12:13:28;16.70;99.90
2639;DHT22;1329;51.384;7.122;2024-02-16T12:15:56;16.60;99.90
2639;DHT22;1329;51.384;7.122;2024-02-16T12:18:25;16.60;99.90
2639;DHT22;1329;51.384;7.122;2024-02-16T12:20:59;16.60;99.90
2639;DHT22;1329;51.384;7.122;2024-02-16T12:23:27;16.60;99.90
2639;DHT22;1329;51.384;7.122;2024-02-16T12:25:58;16.50;99.90
2639;DHT22;1329;51.384;7.122;2024-02-16T12:28:27;16.50;99.90
2639;DHT22;1329;51.384;7.122;2024-02-16T12:30:54;16.50;99.90
2639;DHT22;1329;51.384;7.122;2024-02-16T12:33:22;16.50;99.90
2639;DHT22;1329;51.384;7.122;2024-02-16T12:35:50;16.50;99.90
2639;DHT22;1329;51.384;7.122;2024-02-16T12:38:18;16.50;99.90
2639;DHT22;1329;51.384;7.122;2024-02-16T12:40:45;16.40;99.90
2639;DHT22;1329;51.384;7.122;2024-02-16T12:43:13;16.40;99.90
2639;DHT22;1329;51.384;7.122;2024-02-16T12:45:40;16.40;99.90
2639;DHT22;1329;51.384;7.122;2024-02-16T12:48:14;16.40;99.90
2639;DHT22;1329;51.384;7.122;2024-02-16T12:50:41;16.40;99.90
2639;DHT22;1329;51.384;7.122;2024-02-16T12:53:09;16.30;99.90
2639;DHT22;1329;51.384;7.122;2024-02-16T12:55:38;16.30;99.90
2639;DHT22;1329;51.384;7.122;2024-02-16T12:58:06;16.30;99.90
2639;DHT22;1329;51.384;7.122;2024-02-16T13:00:33;16.30;99.90
2639;DHT22;1329;51.384;7.122;2024-02-16T13:03:00;16.20;99.90
2639;DHT22;1329;51.384;7.122;2024-02-16T13:05:27;16.20;99.90
2639;DHT22;1329;51.384;7.122;2024-02-16T13:07:56;16.20;99.90
2639;DHT22;1329;51.384;7.122;2024-02-16T13:10:23;16.10;99.90
2639;DHT22;1329;51.384;7.122;2024-02-16T13:12:51;16.20;99.90
2639;DHT22;1329;51.384;7.122;2024-02-16T13:15:19;16.10;99.90
2639;DHT22;1329;51.384;7.122;2024-02-16T13:17:46;16.10;99.90
2639;DHT22;1329;51.384;7.122;2024-02-16T13:20:13;16.10;99.90
2639;DHT22;1329;51.384;7.122;2024-02-16T13:22:40;16.10;99.90
2639;DHT22;1329;51.384;7.122;2024-02-16T13:25:09;16.10;99.90
2639;DHT22;1329;51.384;7.122;2024-02-16T13:27:36;16.10;99.90
2639;DHT22;1329;51.384;7.122;2024-02-16T13:30:06;16.00;99.90
2639;DHT22;1329;51.384;7.122;2024-02-16T13:32:34;16.00;99.90
2639;DHT22;1329;51.384;7.122;2024-02-16T13:35:05;15.90;99.90
2639;DHT22;1329;51.384;7.122;2024-02-16T13:37:33;15.90;99.90
2639;DHT22;1329;51.384;7.122;2024-02-16T13:40:00;15.90;99.90
2639;DHT22;1329;51.384;7.122;2024-02-16T13:42:32;15.90;99.90
2639;DHT22;1329;51.384;7.122;2024-02-16T13:45:00;15.90;99.90
2639;DHT22;1329;51.384;7.122;2024-02-16T13:47:28;15.80;99.90
2639;DHT22;1329;51.384;7.122;2024-02-16T13:49:56;15.90;99.90
2639;DHT22;1329;51.384;7.122;2024-02-16T13:52:25;15.80;99.90
2639;DHT22;1329;51.384;7.122;2024-02-16T13:54:52;15.80;99.90
2639;DHT22;1329;51.384;7.122;2024-02-16T13:57:20;15.80;99.90
2639;DHT22;1329;51.384;7.122;2024-02-16T13:59:47;15.70;99.90
2639;DHT22;1329;51.384;7.122;2024-02-16T14:02:14;15.70;99.90
2639;DHT22;1329;51.384;7.122;2024-02-16T14:04:44;15.60;99.90
2639;DHT22;1329;51.384;7.122;2024-02-16T14:07:11;15.60;99.90
2639;DHT22;1329;51.384;7.122;2024-02-16T14:09:38;15.60;99.90
2639;DHT22;1329;51.384;7.122;2024-02-16T14:12:06;15.50;99.90
2639;DHT22;1329;51.384;7.122;2024-02-16T14:14:33;15.50;99.90
2639;DHT22;1329;51.384;7.122;2024-02-16T14:17:00;15.40;99.90
2639;DHT22;1329;51.384;7.122;2024-02-16T14:19:27;15.40;99.90
2639;DHT22;1329;51.384;7.122;2024-02-16T14:21:56;15.40;99.90
2639;DHT22;1329;51.384;7.122;2024-02-16T14:24:24;15.40;99.90
2639;DHT22;1329;51.384;7.122;2024-02-16T14:26:51;15.30;99.90
2639;DHT22;1329;51.384;7.122;2024-02-16T14:29:19;15.30;99.90
2639;DHT22;1329;51.384;7.122;2024-02-16T14:31:46;15.30;99.90
2639;DHT22;1329;51.384;7.122;2024-02-16T14:34:14;15.30;99.90
2639;DHT22;1329;51.384;7.122;2024-02-16T14:36:42;15.20;99.90
2639;DHT22;1329;51.384;7.122;2024-02-16T14:39:10;15.20;99.90
2639;DHT22;1329;51.384;7.122;2024-02-16T14:41:38;15.20;99.90
2639;DHT22;1329;51.384;7.122;2024-02-16T14:44:05;15.20;99.90
2639;DHT22;1329;51.384;7.122;2024-02-16T14:46:38;15.20;99.90
2639;DHT22;1329;51.384;7.122;2024-02-16T14:49:05;15.20;99.90
2639;DHT22;1329;51.384;7.122;2024-02-16T14:51:34;15.20;99.90
2639;DHT22;1329;51.384;7.122;2024-02-16T14:54:07;15.20;99.90
2639;DHT22;1329;51.384;7.122;2024-02-16T14:56:36;15.20;99.90
2639;DHT22;1329;51.384;7.122;2024-02-16T14:59:03;15.20;99.90
2639;DHT22;1329;51.384;7.122;2024-02-16T15:01:30;15.10;99.90
2639;DHT22;1329;51.384;7.122;2024-02-16T15:03:58;15.10;99.90
2639;DHT22;1329;51.384;7.122;2024-02-16T15:06:25;15.10;99.90
2639;DHT22;1329;51.384;7.122;2024-02-16T15:08:52;15.10;99.90
2639;DHT22;1329;51.384;7.122;2024-02-16T15:11:19;15.10;99.90
2639;DHT22;1329;51.384;7.122;2024-02-16T15:13:48;15.10;99.90
2639;DHT22;1329;51.384;7.122;2024-02-16T15:16:15;15.10;99.90
2639;DHT22;1329;51.384;7.122;2024-02-16T15:18:42;15.10;99.90
2639;DHT22;1329;51.384;7.122;2024-02-16T15:21:09;15.10;99.90
2639;DHT22;1329;51.384;7.122;2024-02-16T15:23:36;15.00;99.90
2639;DHT22;1329;51.384;7.122;2024-02-16T15:26:04;15.00;99.90
2639;DHT22;1329;51.384;7.122;2024-02-16T15:28:34;15.00;99.90
2639;DHT22;1329;51.384;7.122;2024-02-16T15:31:03;14.90;99.90
2639;DHT22;1329;51.384;7.122;2024-02-16T15:33:30;14.90;99.90
2639;DHT22;1329;51.384;7.122;2024-02-16T15:35:57;14.90;99.90
2639;DHT22;1329;51.384;7.122;2024-02-16T15:38:25;14.90;99.90
2639;DHT22;1329;51.384;7.122;2024-02-16T15:40:52;14.90;99.90
2639;DHT22;1329;51.384;7.122;2024-02-16T15:43:19;14.80;99.90
2639;DHT22;1329;51.384;7.122;2024-02-16T15:45:46;14.80;99.90
2639;DHT22;1329;51.384;7.122;2024-02-16T15:48:16;14.80;99.90
2639;DHT22;1329;51.384;7.122;2024-02-16T15:50:43;14.80;99.90
2639;DHT22;1329;51.384;7.122;2024-02-16T15:53:10;14.70;99.90
2639;DHT22;1329;51.384;7.122;2024-02-16T15:55:38;14.70;99.90
2639;DHT22;1329;51.384;7.122;2024-02-16T15:58:08;14.70;99.90
2639;DHT22;1329;51.384;7.122;2024-02-16T16:00:35;14.70;99.90
2639;DHT22;1329;51.384;7.122;2024-02-16T16:03:02;14.60;99.90
2639;DHT22;1329;51.384;7.122;2024-02-16T16:05:31;14.70;99.90
2639;DHT22;1329;51.384;7.122;2024-02-16T16:08:00;14.60;99.90
2639;DHT22;1329;51.384;7.122;2024-02-16T16:10:27;14.60;99.90